createdAt,value
2022-09-14T00:01:39.540Z,40.64
2022-09-14T00:04:11.719Z,40.62
2022-09-14T00:06:41.229Z,40.57
2022-09-14T00:09:17.373Z,40.65
2022-09-14T00:11:46.566Z,40.90
2022-09-14T00:14:16.273Z,40.85
2022-09-14T00:16:45.698Z,40.99
2022-09-14T00:19:19.694Z,41.11
2022-09-14T00:21:54.536Z,41.06
2022-09-14T00:24:24.907Z,41.30
2022-09-14T00:26:53.920Z,41.44
2022-09-14T00:29:23.560Z,41.32
2022-09-14T00:31:52.630Z,41.34
2022-09-14T00:34:21.639Z,41.55
2022-09-14T00:36:51.863Z,41.48
2022-09-14T00:39:23.440Z,41.58
2022-09-14T00:41:52.849Z,41.62
2022-09-14T00:44:57.554Z,41.64
2022-09-14T00:47:26.967Z,41.80
2022-09-14T00:49:55.795Z,42.01
2022-09-14T00:52:28.223Z,41.94
2022-09-14T00:55:00.081Z,41.93
2022-09-14T00:57:34.324Z,41.91
2022-09-14T01:00:05.419Z,42.14
2022-09-14T01:02:34.619Z,42.14
2022-09-14T01:05:04.100Z,42.40
2022-09-14T01:07:51.361Z,42.48
2022-09-14T01:10:33.378Z,42.56
2022-09-14T01:13:13.209Z,42.68
2022-09-14T01:15:51.107Z,42.69
2022-09-14T01:18:25.133Z,42.76
2022-09-14T01:20:58.108Z,42.80
2022-09-14T01:23:35.394Z,42.74
2022-09-14T01:26:31.768Z,42.92
2022-09-14T01:29:08.812Z,43.03
2022-09-14T01:31:45.971Z,43.15
2022-09-14T01:34:19.839Z,43.23
2022-09-14T01:36:51.864Z,43.30
2022-09-14T01:39:22.524Z,43.35
2022-09-14T01:41:52.861Z,43.29
2022-09-14T01:44:26.243Z,43.40
2022-09-14T01:47:00.432Z,43.45
2022-09-14T01:49:34.549Z,43.50
2022-09-14T01:52:08.864Z,43.70
2022-09-14T01:54:43.491Z,43.78
2022-09-14T01:57:18.735Z,43.92
2022-09-14T01:59:50.382Z,44.11
2022-09-14T02:02:22.828Z,44.18
2022-09-14T02:04:57.507Z,44.18
2022-09-14T02:07:26.591Z,44.35
2022-09-14T02:09:56.379Z,44.26
2022-09-14T02:12:25.213Z,44.24
2022-09-14T02:14:55.204Z,44.34
2022-09-14T02:17:24.091Z,44.48
2022-09-14T02:19:56.742Z,44.61
2022-09-14T02:22:27.132Z,44.68
2022-09-14T02:24:56.595Z,44.71
2022-09-14T02:27:25.886Z,44.82
2022-09-14T02:29:55.112Z,44.92
2022-09-14T02:32:33.039Z,44.97
2022-09-14T02:35:11.453Z,45.10
2022-09-14T02:37:50.074Z,45.23
2022-09-14T02:40:28.925Z,45.23
2022-09-14T02:43:04.721Z,45.30
2022-09-14T02:45:40.392Z,45.41
2022-09-14T02:48:19.496Z,45.47
2022-09-14T02:50:54.743Z,45.53
2022-09-14T02:53:30.391Z,45.62
2022-09-14T02:56:03.361Z,45.69
2022-09-14T02:58:36.907Z,45.74
2022-09-14T03:01:07.865Z,45.86
2022-09-14T03:03:36.792Z,45.96
2022-09-14T03:06:06.576Z,46.17
2022-09-14T03:08:36.239Z,46.12
2022-09-14T03:11:06.335Z,46.28
2022-09-14T03:13:35.869Z,46.36
2022-09-14T03:16:08.898Z,46.40
2022-09-14T03:18:38.234Z,46.49
2022-09-14T03:21:08.492Z,46.53
2022-09-14T03:23:38.868Z,46.65
2022-09-14T03:26:11.903Z,46.66
2022-09-14T03:28:40.897Z,46.76
2022-09-14T03:31:11.973Z,46.83
2022-09-14T03:33:41.635Z,46.96
2022-09-14T03:36:16.292Z,47.02
2022-09-14T03:38:46.255Z,47.11
2022-09-14T03:41:15.655Z,47.18
2022-09-14T03:43:44.855Z,47.27
2022-09-14T03:46:15.135Z,47.38
2022-09-14T03:48:44.484Z,47.40
2022-09-14T03:51:14.099Z,47.47
2022-09-14T03:53:44.402Z,47.59
2022-09-14T03:56:15.611Z,47.75
2022-09-14T03:58:45.575Z,47.77
2022-09-14T04:01:16.390Z,47.81
2022-09-14T04:03:46.024Z,47.84
2022-09-14T04:06:15.696Z,47.89
2022-09-14T04:08:46.468Z,48.00
2022-09-14T04:11:17.337Z,48.09
2022-09-14T04:13:46.632Z,48.07
2022-09-14T04:16:16.587Z,48.04
2022-09-14T04:18:45.619Z,48.07
2022-09-14T04:21:17.360Z,48.09
2022-09-14T04:24:10.596Z,48.07
2022-09-14T04:26:35.676Z,48.17
2022-09-14T04:29:05.426Z,48.21
2022-09-14T04:31:34.329Z,48.27
2022-09-14T04:34:03.548Z,48.30
2022-09-14T04:36:32.389Z,48.25
2022-09-14T04:39:02.778Z,48.32
2022-09-14T04:41:32.960Z,48.44
2022-09-14T04:44:03.360Z,48.54
2022-09-14T04:46:35.355Z,48.49
2022-09-14T04:49:04.277Z,48.49
2022-09-14T04:51:34.664Z,48.49
2022-09-14T04:54:06.124Z,48.49
2022-09-14T04:56:36.776Z,48.50
2022-09-14T04:59:05.766Z,48.49
2022-09-14T05:01:37.117Z,48.52
2022-09-14T05:04:07.048Z,48.52
2022-09-14T05:06:38.942Z,48.76
2022-09-14T05:09:12.481Z,48.90
2022-09-14T05:11:41.667Z,48.70
2022-09-14T05:14:13.029Z,48.64
2022-09-14T05:16:43.042Z,48.54
2022-09-14T05:19:14.510Z,48.44
2022-09-14T05:21:43.498Z,48.50
2022-09-14T05:24:14.212Z,48.46
2022-09-14T05:26:44.453Z,48.49
2022-09-14T05:29:15.579Z,48.35
2022-09-14T05:31:44.648Z,48.43
2022-09-14T05:34:14.889Z,48.36
2022-09-14T05:36:43.701Z,48.37
2022-09-14T05:39:12.668Z,48.30
2022-09-14T05:41:41.523Z,48.18
2022-09-14T05:44:10.632Z,48.05
2022-09-14T05:46:39.405Z,48.10
2022-09-14T05:49:08.488Z,48.26
2022-09-14T05:51:37.853Z,48.38
2022-09-14T05:54:10.960Z,47.95
2022-09-14T05:56:39.977Z,47.96
2022-09-14T05:59:10.307Z,47.92
2022-09-14T06:01:39.075Z,48.02
2022-09-14T06:04:09.985Z,47.70
2022-09-14T06:06:38.763Z,47.82
2022-09-14T06:09:07.486Z,47.48
2022-09-14T06:11:36.357Z,47.40
2022-09-14T06:14:05.644Z,47.21
2022-09-14T06:16:34.862Z,46.99
2022-09-14T06:19:03.767Z,46.78
2022-09-14T06:21:34.269Z,46.43
2022-09-14T06:24:04.301Z,46.43
2022-09-14T06:26:33.271Z,46.16
2022-09-14T06:29:02.286Z,45.73
2022-09-14T06:31:31.072Z,45.58
2022-09-14T06:33:59.815Z,45.38
2022-09-14T06:36:29.573Z,45.18
2022-09-14T06:39:00.205Z,44.76
2022-09-14T06:41:30.020Z,44.48
2022-09-14T06:44:01.049Z,44.16
2022-09-14T06:46:31.203Z,43.85
2022-09-14T06:49:02.656Z,43.50
2022-09-14T06:51:33.553Z,43.59
2022-09-14T06:54:03.560Z,43.23
2022-09-14T06:56:35.402Z,43.01
2022-09-14T06:59:05.404Z,42.50
2022-09-14T07:01:34.751Z,42.37
2022-09-14T07:04:04.718Z,42.19
2022-09-14T07:06:39.778Z,41.83
2022-09-14T07:09:08.716Z,41.58
2022-09-14T07:11:38.201Z,41.29
2022-09-14T07:14:07.791Z,40.98
2022-09-14T07:16:38.623Z,40.93
2022-09-14T07:19:12.036Z,40.70
2022-09-14T07:21:41.638Z,40.73
2022-09-14T07:24:12.355Z,40.18
2022-09-14T07:26:42.125Z,39.80
2022-09-14T07:29:14.866Z,39.61
2022-09-14T07:31:45.127Z,39.32
2022-09-14T07:34:15.046Z,38.69
2022-09-14T07:36:44.290Z,38.70
2022-09-14T07:39:15.168Z,38.59
2022-09-14T07:41:44.556Z,38.24
2022-09-14T07:44:16.687Z,38.19
2022-09-14T07:46:47.133Z,37.87
2022-09-14T07:49:17.107Z,38.00
2022-09-14T07:51:46.304Z,37.64
2022-09-14T07:54:19.147Z,37.34
2022-09-14T07:56:48.729Z,37.03
2022-09-14T07:59:34.528Z,36.69
2022-09-14T08:02:07.316Z,36.39
2022-09-14T08:04:38.668Z,36.04
2022-09-14T08:07:08.560Z,36.17
2022-09-14T08:09:38.940Z,36.08
2022-09-14T08:12:07.935Z,35.84
2022-09-14T08:14:37.247Z,35.76
2022-09-14T08:17:06.010Z,35.81
2022-09-14T08:19:35.687Z,35.69
2022-09-14T08:22:04.958Z,35.32
2022-09-14T08:24:33.826Z,35.20
2022-09-14T08:27:02.679Z,35.01
2022-09-14T08:29:31.431Z,34.72
2022-09-14T08:32:00.268Z,34.67
2022-09-14T08:34:29.469Z,34.39
2022-09-14T08:36:58.260Z,34.21
2022-09-14T08:39:27.130Z,34.20
2022-09-14T08:41:58.127Z,33.69
2022-09-14T08:44:30.351Z,33.62
2022-09-14T08:47:04.054Z,33.59
2022-09-14T08:49:46.428Z,33.52
2022-09-14T08:52:23.206Z,33.37
2022-09-14T08:54:54.656Z,33.09
2022-09-14T08:57:31.794Z,32.85
2022-09-14T09:00:09.151Z,32.60
2022-09-14T09:02:55.736Z,32.69
2022-09-14T09:05:35.810Z,32.45
2022-09-14T09:08:19.658Z,32.32
2022-09-14T09:10:50.273Z,32.41
2022-09-14T09:13:23.608Z,31.94
2022-09-14T09:15:57.493Z,31.91
2022-09-14T09:18:36.952Z,31.79
2022-09-14T09:21:10.503Z,31.67
2022-09-14T09:23:40.840Z,31.19
2022-09-14T09:26:16.729Z,31.11
2022-09-14T09:28:48.912Z,30.90
2022-09-14T09:31:22.038Z,30.82
2022-09-14T09:33:51.104Z,30.50
2022-09-14T09:36:19.948Z,30.61
2022-09-14T09:38:48.642Z,30.72
2022-09-14T09:41:22.316Z,30.43
2022-09-14T09:44:02.369Z,30.28
2022-09-14T09:46:33.996Z,30.47
2022-09-14T09:49:14.188Z,30.42
2022-09-14T09:51:44.144Z,30.18
2022-09-14T09:54:24.274Z,30.12
2022-09-14T09:56:55.692Z,30.23
2022-09-14T09:59:31.556Z,30.33
2022-09-14T10:02:20.029Z,30.06
2022-09-14T10:04:59.482Z,29.99
2022-09-14T10:07:30.632Z,29.88
2022-09-14T10:10:05.328Z,30.16
2022-09-14T10:12:35.015Z,29.87
2022-09-14T10:15:16.754Z,29.67
2022-09-14T10:18:16.061Z,28.97
2022-09-14T10:21:05.432Z,29.41
2022-09-14T10:23:36.085Z,29.41
2022-09-14T10:26:27.022Z,29.31
2022-09-14T10:29:15.815Z,28.92
2022-09-14T10:31:46.891Z,29.10
2022-09-14T10:34:20.199Z,29.06
2022-09-14T10:36:57.115Z,28.58
2022-09-14T10:39:30.907Z,28.34
2022-09-14T10:42:07.367Z,28.23
2022-09-14T10:44:51.919Z,28.41
2022-09-14T10:47:32.608Z,28.32
2022-09-14T10:50:19.573Z,28.37
2022-09-14T10:53:11.771Z,28.07
2022-09-14T10:55:46.966Z,27.98
2022-09-14T10:58:24.522Z,27.92
2022-09-14T11:01:06.367Z,27.69
2022-09-14T11:03:53.260Z,27.55
2022-09-14T11:06:39.996Z,27.34
2022-09-14T11:09:21.062Z,27.13
2022-09-14T11:12:00.912Z,27.35
2022-09-14T11:14:43.029Z,27.46
2022-09-14T11:17:28.743Z,27.40
2022-09-14T11:20:06.666Z,27.32
2022-09-14T11:22:45.844Z,27.33
2022-09-14T11:25:18.838Z,27.63
2022-09-14T11:27:51.924Z,27.68
2022-09-14T11:30:23.933Z,27.69
2022-09-14T11:32:59.661Z,27.64
2022-09-14T11:35:34.165Z,27.68
2022-09-14T11:38:13.231Z,27.77
2022-09-14T11:40:46.607Z,27.90
2022-09-14T11:43:20.995Z,27.78
2022-09-14T11:45:52.747Z,27.79
2022-09-14T11:48:43.955Z,27.92
2022-09-14T11:51:18.715Z,27.76
2022-09-14T11:53:48.340Z,27.62
2022-09-14T11:56:26.420Z,27.62
2022-09-14T11:58:58.084Z,27.81
2022-09-14T12:01:31.492Z,27.82
2022-09-14T12:04:12.330Z,27.67
2022-09-14T12:06:54.040Z,27.65
2022-09-14T12:09:44.433Z,27.91
2022-09-14T12:12:33.010Z,27.92
2022-09-14T12:15:04.640Z,27.99
2022-09-14T12:17:41.860Z,27.96
2022-09-14T12:20:40.733Z,28.00
2022-09-14T12:23:22.512Z,28.13
2022-09-14T12:26:12.684Z,28.07
2022-09-14T12:28:48.074Z,27.99
2022-09-14T12:31:58.194Z,27.97
2022-09-14T12:34:29.794Z,27.90
2022-09-14T12:37:09.947Z,27.92
2022-09-14T12:40:23.321Z,27.88
2022-09-14T12:42:54.688Z,27.73
2022-09-14T12:45:51.617Z,27.93
2022-09-14T12:48:57.943Z,28.03
2022-09-14T12:51:42.266Z,27.89
2022-09-14T12:54:28.677Z,28.07
2022-09-14T12:57:09.133Z,27.86
2022-09-14T12:59:46.546Z,27.91
2022-09-14T13:03:03.655Z,27.65
2022-09-14T13:05:34.724Z,27.79
2022-09-14T13:08:10.688Z,27.37
2022-09-14T13:10:45.197Z,27.42
2022-09-14T13:13:17.917Z,27.55
2022-09-14T13:15:53.155Z,27.32
2022-09-14T13:18:36.843Z,27.45
2022-09-14T13:21:19.876Z,27.54
2022-09-14T13:23:50.274Z,27.23
2022-09-14T13:26:23.452Z,27.38
2022-09-14T13:28:54.438Z,27.03
2022-09-14T13:31:30.093Z,27.06
2022-09-14T13:34:00.035Z,26.94
2022-09-14T13:36:31.603Z,27.01
2022-09-14T13:39:02.660Z,26.88
2022-09-14T13:41:33.121Z,27.04
2022-09-14T13:44:02.269Z,26.90
2022-09-14T13:46:31.425Z,26.99
2022-09-14T13:49:00.264Z,26.93
2022-09-14T13:51:30.117Z,26.98
2022-09-14T13:54:16.519Z,26.98
2022-09-14T13:56:45.303Z,27.00
2022-09-14T13:59:20.955Z,27.21
2022-09-14T14:01:56.536Z,27.01
2022-09-14T14:04:29.347Z,27.04
2022-09-14T14:07:05.531Z,27.03
2022-09-14T14:09:46.575Z,27.01
2022-09-14T14:12:24.736Z,26.83
2022-09-14T14:15:01.171Z,26.88
2022-09-14T14:17:38.075Z,27.04
2022-09-14T14:20:33.171Z,26.78
2022-09-14T14:23:15.439Z,26.88
2022-09-14T14:25:51.731Z,26.63
2022-09-14T14:28:24.535Z,26.60
2022-09-14T14:30:54.403Z,26.75
2022-09-14T14:33:23.993Z,26.64
2022-09-14T14:35:54.282Z,26.61
2022-09-14T14:38:24.490Z,26.62
2022-09-14T14:40:55.494Z,26.76
2022-09-14T14:43:26.972Z,26.67
2022-09-14T14:45:57.857Z,26.84
2022-09-14T14:48:27.403Z,26.73
2022-09-14T14:50:56.207Z,26.60
2022-09-14T14:53:29.974Z,26.51
2022-09-14T14:55:58.756Z,26.60
2022-09-14T14:58:28.608Z,26.55
2022-09-14T15:00:57.480Z,26.37
2022-09-14T15:03:26.477Z,26.53
2022-09-14T15:05:55.242Z,26.48
2022-09-14T15:08:23.947Z,26.36
2022-09-14T15:10:56.998Z,26.30
2022-09-14T15:13:25.731Z,26.57
2022-09-14T15:15:54.438Z,26.45
2022-09-14T15:18:23.130Z,26.49
2022-09-14T15:20:51.831Z,26.53
2022-09-14T15:23:20.972Z,26.34
2022-09-14T15:25:52.420Z,26.49
2022-09-14T15:28:21.412Z,26.39
2022-09-14T15:30:51.350Z,26.46
2022-09-14T15:33:20.215Z,26.33
2022-09-14T15:35:55.454Z,26.50
2022-09-14T15:38:24.769Z,26.43
2022-09-14T15:40:53.635Z,26.51
2022-09-14T15:43:23.399Z,26.35
2022-09-14T15:45:52.199Z,26.44
2022-09-14T15:48:20.964Z,26.37
2022-09-14T15:51:11.133Z,26.33
2022-09-14T15:53:39.957Z,26.52
2022-09-14T15:56:11.923Z,26.70
2022-09-14T15:58:44.751Z,26.42
2022-09-14T16:01:18.382Z,26.62
2022-09-14T16:03:47.242Z,26.48
2022-09-14T16:06:16.016Z,26.64
2022-09-14T16:08:44.742Z,26.54
2022-09-14T16:11:13.460Z,26.63
2022-09-14T16:13:42.214Z,26.49
2022-09-14T16:16:13.252Z,26.61
2022-09-14T16:18:43.407Z,26.54
2022-09-14T16:21:15.757Z,26.73
2022-09-14T16:23:51.221Z,26.58
2022-09-14T16:26:22.496Z,26.42
2022-09-14T16:28:52.656Z,26.75
2022-09-14T16:31:24.453Z,26.85
2022-09-14T16:33:55.392Z,26.79
2022-09-14T16:36:26.422Z,26.71
2022-09-14T16:38:57.506Z,26.53
2022-09-14T16:41:27.370Z,26.56
2022-09-14T16:43:56.753Z,26.63
2022-09-14T16:46:26.908Z,26.70
2022-09-14T16:48:58.039Z,26.67
2022-09-14T16:51:29.781Z,27.14
2022-09-14T16:54:00.152Z,26.81
2022-09-14T16:56:32.003Z,26.87
2022-09-14T16:59:01.881Z,26.95
2022-09-14T17:01:32.589Z,26.85
2022-09-14T17:04:07.659Z,26.94
2022-09-14T17:06:38.340Z,26.97
2022-09-14T17:09:08.837Z,26.97
2022-09-14T17:11:39.012Z,27.18
2022-09-14T17:14:09.139Z,27.34
2022-09-14T17:16:37.983Z,27.23
2022-09-14T17:19:06.863Z,27.38
2022-09-14T17:21:38.686Z,27.84
2022-09-14T17:24:08.482Z,27.46
2022-09-14T17:26:40.800Z,27.96
2022-09-14T17:29:10.420Z,27.93
2022-09-14T17:31:42.087Z,28.06
2022-09-14T17:34:12.796Z,27.99
2022-09-14T17:36:41.965Z,28.44
2022-09-14T17:39:12.407Z,28.52
2022-09-14T17:41:43.435Z,28.57
2022-09-14T17:44:14.181Z,28.63
2022-09-14T17:46:52.520Z,28.94
2022-09-14T17:49:23.073Z,28.89
2022-09-14T17:51:52.099Z,29.10
2022-09-14T17:54:21.061Z,29.38
2022-09-14T17:56:49.966Z,29.18
2022-09-14T17:59:20.494Z,29.26
2022-09-14T18:01:49.862Z,29.58
2022-09-14T18:04:19.001Z,29.64
2022-09-14T18:06:49.676Z,29.78
2022-09-14T18:09:20.624Z,29.77
2022-09-14T18:11:50.459Z,29.75
2022-09-14T18:14:19.605Z,30.20
2022-09-14T18:16:48.694Z,30.14
2022-09-14T18:19:17.479Z,30.36
2022-09-14T18:21:51.643Z,30.13
2022-09-14T18:24:21.802Z,30.41
2022-09-14T18:26:50.920Z,30.63
2022-09-14T18:29:20.961Z,30.71
2022-09-14T18:31:50.057Z,30.83
2022-09-14T18:34:19.662Z,30.62
2022-09-14T18:36:50.358Z,30.58
2022-09-14T18:39:19.860Z,30.95
2022-09-14T18:41:53.063Z,30.86
2022-09-14T18:44:22.458Z,31.17
2022-09-14T18:46:51.862Z,31.09
2022-09-14T18:49:20.992Z,31.48
2022-09-14T18:51:49.658Z,31.46
2022-09-14T18:54:18.831Z,31.34
2022-09-14T18:56:48.214Z,31.72
2022-09-14T18:59:17.014Z,31.54
2022-09-14T19:01:45.871Z,31.81
2022-09-14T19:04:15.361Z,31.77
2022-09-14T19:06:46.152Z,31.95
2022-09-14T19:09:14.883Z,32.16
2022-09-14T19:11:43.791Z,32.03
2022-09-14T19:14:13.246Z,32.08
2022-09-14T19:16:42.560Z,32.38
2022-09-14T19:19:13.379Z,32.30
2022-09-14T19:21:43.416Z,32.62
2022-09-14T19:24:14.477Z,32.59
2022-09-14T19:26:46.819Z,32.78
2022-09-14T19:29:18.698Z,32.71
2022-09-14T19:31:50.923Z,32.69
2022-09-14T19:34:20.554Z,32.88
2022-09-14T19:36:49.897Z,32.97
2022-09-14T19:39:18.863Z,33.06
2022-09-14T19:41:47.704Z,33.23
2022-09-14T19:44:17.376Z,33.29
2022-09-14T19:46:46.375Z,33.32
2022-09-14T19:49:16.950Z,33.37
2022-09-14T19:51:46.384Z,33.43
2022-09-14T19:54:15.661Z,33.64
2022-09-14T19:56:46.032Z,33.76
2022-09-14T19:59:15.977Z,33.63
2022-09-14T20:01:45.627Z,33.71
2022-09-14T20:04:17.590Z,33.96
2022-09-14T20:06:47.800Z,34.01
2022-09-14T20:09:18.636Z,34.11
2022-09-14T20:11:50.148Z,34.20
2022-09-14T20:14:21.155Z,34.02
2022-09-14T20:16:52.983Z,34.26
2022-09-14T20:19:24.860Z,34.33
2022-09-14T20:21:54.669Z,34.32
2022-09-14T20:24:26.467Z,34.50
2022-09-14T20:26:58.807Z,34.69
2022-09-14T20:29:30.079Z,34.85
2022-09-14T20:31:59.582Z,34.99
2022-09-14T20:34:29.297Z,35.11
2022-09-14T20:37:00.199Z,34.99
2022-09-14T20:39:30.021Z,35.04
2022-09-14T20:41:58.831Z,35.26
2022-09-14T20:44:27.616Z,35.29
2022-09-14T20:46:56.567Z,35.25
2022-09-14T20:49:26.092Z,35.19
2022-09-14T20:51:56.728Z,35.51
2022-09-14T20:54:25.599Z,35.47
2022-09-14T20:56:54.303Z,35.56
2022-09-14T20:59:23.305Z,35.53
2022-09-14T21:01:52.906Z,35.67
2022-09-14T21:04:23.879Z,35.60
2022-09-14T21:06:54.677Z,35.80
2022-09-14T21:09:25.086Z,35.77
2022-09-14T21:11:54.102Z,35.88
2022-09-14T21:14:23.109Z,36.04
2022-09-14T21:16:56.103Z,36.08
2022-09-14T21:19:26.807Z,36.15
2022-09-14T21:21:56.425Z,36.35
2022-09-14T21:24:25.879Z,36.29
2022-09-14T21:26:56.735Z,36.37
2022-09-14T21:29:25.731Z,36.61
2022-09-14T21:31:54.435Z,36.72
2022-09-14T21:34:23.167Z,36.74
2022-09-14T21:36:52.624Z,36.84
2022-09-14T21:39:26.918Z,36.94
2022-09-14T21:41:59.248Z,37.08
2022-09-14T21:44:33.149Z,37.16
2022-09-14T21:47:02.704Z,37.20
2022-09-14T21:49:31.864Z,37.50
2022-09-14T21:52:00.784Z,37.52
2022-09-14T21:54:29.639Z,37.59
2022-09-14T21:56:58.476Z,37.71
2022-09-14T21:59:27.255Z,37.69
2022-09-14T22:01:56.059Z,38.00
2022-09-14T22:04:26.281Z,38.10
2022-09-14T22:06:56.607Z,38.25
2022-09-14T22:09:28.151Z,38.32
2022-09-14T22:11:57.672Z,38.48
2022-09-14T22:14:28.499Z,38.65
2022-09-14T22:16:57.353Z,38.78
2022-09-14T22:19:27.765Z,38.76
2022-09-14T22:21:57.249Z,38.74
2022-09-14T22:24:33.541Z,39.03
2022-09-14T22:27:06.183Z,39.15
2022-09-14T22:29:35.249Z,39.44
2022-09-14T22:32:06.630Z,39.52
2022-09-14T22:34:35.475Z,39.83
2022-09-14T22:37:04.204Z,39.91
2022-09-14T22:39:32.932Z,39.91
2022-09-14T22:42:01.975Z,40.00
2022-09-14T22:44:31.272Z,40.07
2022-09-14T22:46:59.988Z,40.10
2022-09-14T22:49:28.687Z,40.27
2022-09-14T22:51:57.480Z,40.18
2022-09-14T22:54:26.292Z,40.38
2022-09-14T22:56:55.028Z,40.52
2022-09-14T22:59:24.032Z,40.68
2022-09-14T23:01:52.958Z,40.66
2022-09-14T23:04:21.881Z,40.83
2022-09-14T23:06:50.579Z,40.76
2022-09-14T23:09:21.846Z,41.01
2022-09-14T23:11:51.287Z,41.31
2022-09-14T23:14:20.001Z,41.29
2022-09-14T23:16:48.797Z,41.35
2022-09-14T23:19:18.701Z,41.35
2022-09-14T23:21:47.520Z,41.31
2022-09-14T23:24:16.243Z,41.06
2022-09-14T23:26:44.946Z,41.20
2022-09-14T23:29:16.329Z,41.16
2022-09-14T23:31:46.236Z,40.96
2022-09-14T23:34:15.183Z,40.94
2022-09-14T23:36:44.020Z,41.00
2022-09-14T23:39:12.774Z,40.96
2022-09-14T23:41:41.641Z,41.02
2022-09-14T23:44:12.073Z,40.95
2022-09-14T23:46:41.092Z,41.02
2022-09-14T23:49:11.691Z,40.78
2022-09-14T23:51:41.471Z,41.05
2022-09-14T23:54:11.339Z,40.89
2022-09-14T23:56:40.357Z,41.15
2022-09-14T23:59:12.059Z,41.39
